Center Groton, Connecticut
Current Conditions -  °F | °C
As of 3:56 AM on Sunday 26 Oct 2014 (Local Time) from KGON Reporting Station
Broken Clouds Broken Clouds  
Wind Chill: 53°   Ceiling: 9500
Heat Index: 53°   Visibility: 10mi
Dew Point: 49°   Wind: 5mph
Humidity: 86%   Direction: 320°NW
Pressure: 29.49"   Gusts: NA
Location:  41.3595°N, 72.0439°W
Report Text: KGON 260756Z AUTO 32004KT 10SM BKN095 12/09 A2949 RMK AO2 RAB06E44 SLP984 P0000 T01170094
Loading
Personal Weather Stations






























Interactive Weather Map
Tropical Storm Tracking
New forecast layout! Learn more

10-Day Weather Forecast

Advertisements
Track Severe Weather on mobile